createdAt,value
2023-01-11T00:03:33.842Z,59.06905
2023-01-11T00:08:35.871Z,59.25747
2023-01-11T00:13:37.690Z,58.06576
2023-01-11T00:18:39.460Z,58.77242
2023-01-11T00:23:41.269Z,60.70782
2023-01-11T00:28:43.024Z,59.58041
2023-01-11T00:33:44.787Z,58.48254
2023-01-11T00:38:46.883Z,60.67166
2023-01-11T00:43:48.755Z,60.0969
2023-01-11T00:48:50.508Z,62.06405
2023-01-11T00:53:52.336Z,61.41665
2023-01-11T00:58:54.215Z,61.28737
2023-01-11T01:03:56.021Z,64.25189
2023-01-11T01:08:57.785Z,64.80906
2023-01-11T01:13:59.280Z,63.32144
2023-01-11T01:19:01.148Z,64.58032
2023-01-11T01:24:02.718Z,64.4091
2023-01-11T01:29:04.237Z,64.54506
2023-01-11T01:34:05.728Z,62.58776
2023-01-11T01:39:07.422Z,63.25584
2023-01-11T01:44:08.965Z,62.9831
2023-01-11T01:49:10.441Z,62.36307
2023-01-11T01:54:12.014Z,63.00699
2023-01-11T01:59:13.600Z,59.68887
2023-01-11T02:04:15.191Z,61.70084
2023-01-11T02:09:17.401Z,61.11431
2023-01-11T02:14:19.233Z,62.81182
2023-01-11T02:19:20.983Z,61.89851
2023-01-11T02:24:22.689Z,61.15078
2023-01-11T02:29:24.389Z,59.91208
2023-01-11T02:34:26.099Z,59.78742
2023-01-11T02:39:28.153Z,60.26707
2023-01-11T02:44:29.950Z,59.81556
2023-01-11T02:49:31.421Z,59.0486
2023-01-11T02:54:33.024Z,59.30165
2023-01-11T02:59:34.755Z,59.99077
2023-01-11T03:04:36.410Z,59.26993
2023-01-11T03:09:38.617Z,61.39321
2023-01-11T03:14:40.152Z,59.66812
2023-01-11T03:19:41.673Z,58.94431
2023-01-11T03:24:43.353Z,58.7179
2023-01-11T03:29:44.863Z,59.06599
2023-01-11T03:34:46.625Z,60.73779
2023-01-11T03:39:48.972Z,60.14518
2023-01-11T03:44:50.535Z,61.58012
2023-01-11T03:49:52.070Z,60.98787
2023-01-11T03:54:53.639Z,59.48781
2023-01-11T03:59:55.130Z,62.19822
2023-01-11T04:04:56.779Z,62.6161
2023-01-11T04:09:58.766Z,63.77428
2023-01-11T04:15:00.331Z,61.08905
2023-01-11T04:20:01.868Z,61.76688
2023-01-11T04:25:03.603Z,58.46391
2023-01-11T04:30:05.231Z,59.02993
2023-01-11T04:35:06.709Z,58.10712
2023-01-11T04:40:09.269Z,59.02593
2023-01-11T04:45:10.891Z,60.44864
2023-01-11T04:50:12.800Z,60.62098
2023-01-11T04:55:14.408Z,58.85792
2023-01-11T05:00:15.941Z,59.08281
2023-01-11T05:05:17.677Z,56.59831
2023-01-11T05:10:21.138Z,55.46593
2023-01-11T05:15:22.719Z,54.2672
2023-01-11T05:20:24.475Z,54.50631
2023-01-11T05:25:26.403Z,55.30151
2023-01-11T05:30:28.173Z,53.05612
2023-01-11T05:35:29.973Z,52.60024
2023-01-11T05:40:32.014Z,51.39752
2023-01-11T05:45:33.832Z,47.60303
2023-01-11T05:50:35.709Z,47.90154
2023-01-11T05:55:37.370Z,47.73815
2023-01-11T06:00:38.841Z,46.03888
2023-01-11T06:05:40.609Z,44.3643
2023-01-11T06:10:42.655Z,44.23703
2023-01-11T06:15:44.544Z,42.50106
2023-01-11T06:20:46.345Z,42.06528
2023-01-11T06:25:48.164Z,42.92745
2023-01-11T06:30:49.970Z,40.9636
2023-01-11T06:35:51.585Z,40.98099
2023-01-11T06:40:53.552Z,41.59442
2023-01-11T06:45:55.407Z,39.01738
2023-01-11T06:50:57.307Z,42.06564
2023-01-11T06:55:58.903Z,39.97293
2023-01-11T07:01:00.536Z,38.83348
2023-01-11T07:06:02.199Z,39.09384
2023-01-11T07:11:04.052Z,39.05607
2023-01-11T07:16:05.595Z,40.30352
2023-01-11T07:21:07.371Z,39.13732
2023-01-11T07:26:09.101Z,36.36584
2023-01-11T07:31:11.014Z,36.53835
2023-01-11T07:36:12.722Z,33.06516
2023-01-11T07:41:14.612Z,35.11698
2023-01-11T07:46:16.428Z,36.0866
2023-01-11T07:51:18.130Z,30.34411
2023-01-11T07:56:19.807Z,31.06647
2023-01-11T08:01:21.559Z,32.10504
2023-01-11T08:06:23.331Z,28.24635
2023-01-11T08:11:25.297Z,29.20931
2023-01-11T08:16:26.799Z,28.79347
2023-01-11T08:21:28.418Z,26.34732
2023-01-11T08:26:30.215Z,25.78453
2023-01-11T08:31:31.945Z,24.8246
2023-01-11T08:36:33.442Z,27.49038
2023-01-11T08:41:35.384Z,28.25302
2023-01-11T08:46:37.218Z,27.44257
2023-01-11T08:51:39.004Z,26.71237
2023-01-11T08:56:40.823Z,26.86009
2023-01-11T09:01:42.621Z,21.20565
2023-01-11T09:06:44.387Z,23.1626
2023-01-11T09:11:46.705Z,21.04777
2023-01-11T09:16:48.488Z,22.63195
2023-01-11T09:21:50.269Z,22.44751
2023-01-11T09:26:51.866Z,22.61693
2023-01-11T09:31:53.463Z,22.13887
2023-01-11T09:36:55.240Z,21.0762
2023-01-11T09:41:57.208Z,20.36189
2023-01-11T09:46:58.929Z,20.07784
2023-01-11T09:52:00.451Z,19.45001
2023-01-11T09:57:02.178Z,18.97446
2023-01-11T10:02:03.867Z,19.03769
2023-01-11T10:07:05.370Z,19.66441
2023-01-11T10:19:30.875Z,20.92661
2023-01-11T10:24:36.770Z,20.94679
2023-01-11T10:29:38.877Z,20.16087
2023-01-11T10:34:40.551Z,21.79661
2023-01-11T10:39:42.288Z,20.43676
2023-01-11T10:44:44.349Z,20.21962
2023-01-11T10:49:45.913Z,19.14566
2023-01-11T10:54:48.145Z,18.91957
2023-01-11T10:59:50.619Z,18.94803
2023-01-11T11:04:52.097Z,19.76128
2023-01-11T11:09:53.605Z,19.54121
2023-01-11T11:14:55.463Z,20.36682
2023-01-11T11:19:56.980Z,19.7571
2023-01-11T11:24:58.479Z,19.70837
2023-01-11T11:29:59.988Z,19.8425
2023-01-11T11:35:01.454Z,18.86273
2023-01-11T11:40:03.229Z,19.95332
2023-01-11T11:45:04.975Z,19.66836
2023-01-11T11:50:06.752Z,20.53327
2023-01-11T11:55:08.941Z,19.32705
2023-01-11T12:00:10.822Z,18.70187
2023-01-11T12:05:12.604Z,19.31555
2023-01-11T12:10:14.423Z,19.08044
2023-01-11T12:15:16.893Z,19.94957
2023-01-11T12:20:18.648Z,20.49844
2023-01-11T12:25:21.213Z,19.7758
2023-01-11T12:30:23.227Z,19.28842
2023-01-11T12:35:24.750Z,19.36712
2023-01-11T12:40:26.297Z,19.77658
2023-01-11T12:45:28.451Z,19.16459
2023-01-11T12:50:30.238Z,19.6002
2023-01-11T12:55:32.158Z,19.63424
2023-01-11T13:00:34.031Z,20.71956
2023-01-11T13:05:35.765Z,22.28882
2023-01-11T13:10:37.738Z,21.17871
2023-01-11T13:15:40.309Z,21.50093
2023-01-11T13:20:59.420Z,21.83516
2023-01-11T13:26:02.970Z,21.94682
2023-01-11T13:31:04.741Z,20.20776
2023-01-11T13:36:15.069Z,21.29852
2023-01-11T13:41:23.724Z,21.09839
2023-01-11T13:46:25.865Z,21.59812
2023-01-11T13:51:27.487Z,21.34536
2023-01-11T13:56:29.202Z,21.68997
2023-01-11T14:01:31.303Z,20.8946
2023-01-11T14:06:32.815Z,21.26463
2023-01-11T14:11:34.329Z,21.37186
2023-01-11T14:16:36.910Z,21.84481
2023-01-11T14:21:38.512Z,22.03581
2023-01-11T14:26:40.151Z,21.97602
2023-01-11T14:31:41.897Z,23.07935
2023-01-11T14:36:44.254Z,24.88926
2023-01-11T14:41:45.870Z,23.76852
2023-01-11T14:46:47.763Z,23.19295
2023-01-11T14:51:49.391Z,23.91898
2023-01-11T14:56:51.238Z,24.53751
2023-01-11T15:01:53.224Z,22.91363
2023-01-11T15:06:55.081Z,23.81583
2023-01-11T15:11:56.574Z,23.46102
2023-01-11T15:16:58.470Z,22.93115
2023-01-11T15:22:00.144Z,23.48623
2023-01-11T15:27:01.935Z,23.10993
2023-01-11T15:32:03.610Z,23.83998
2023-01-11T15:37:05.480Z,21.68349
2023-01-11T15:42:07.178Z,21.4108
2023-01-11T15:47:08.947Z,21.66823
2023-01-11T15:52:10.412Z,22.40122
2023-01-11T15:57:12.147Z,22.94917
2023-01-11T16:02:13.719Z,21.99647
2023-01-11T16:07:15.251Z,21.57003
2023-01-11T16:12:16.730Z,22.31403
2023-01-11T16:17:18.760Z,22.47776
2023-01-11T16:22:20.273Z,22.61197
2023-01-11T16:27:21.876Z,22.86021
2023-01-11T16:32:23.392Z,23.91663
2023-01-11T16:37:25.191Z,24.1302
2023-01-11T16:42:26.971Z,24.73376
2023-01-11T16:47:28.904Z,24.83013
2023-01-11T16:52:30.694Z,25.84542
2023-01-11T16:57:32.482Z,26.19595
2023-01-11T17:02:34.478Z,26.74411
2023-01-11T17:07:36.275Z,27.24622
2023-01-11T17:12:37.741Z,28.06918
2023-01-11T17:17:40.018Z,28.47954
2023-01-11T17:22:41.873Z,28.82067
2023-01-11T17:27:43.659Z,29.26197
2023-01-11T17:32:45.432Z,30.31318
2023-01-11T17:37:47.217Z,30.62183
2023-01-11T17:42:49.009Z,31.15966
2023-01-11T17:47:51.028Z,30.64116
2023-01-11T17:52:55.026Z,33.19264
2023-01-11T17:57:57.289Z,32.21581
2023-01-11T18:02:59.279Z,32.60441
2023-01-11T18:08:01.093Z,33.30711
2023-01-11T18:13:02.781Z,33.77105
2023-01-11T18:18:04.877Z,33.25465
2023-01-11T18:23:07.375Z,34.34758
2023-01-11T18:28:09.595Z,34.87406
2023-01-11T18:33:11.799Z,35.15299
2023-01-11T18:38:14.309Z,35.19701
2023-01-11T18:43:16.911Z,35.57785
2023-01-11T18:48:20.152Z,36.77737
2023-01-11T18:53:23.070Z,35.86195
2023-01-11T18:58:26.128Z,35.52655
2023-01-11T19:03:29.346Z,36.04637
2023-01-11T19:08:32.623Z,36.01396
2023-01-11T19:13:35.745Z,35.29537
2023-01-11T19:18:39.994Z,36.08786
2023-01-11T19:23:43.244Z,35.86925
2023-01-11T19:28:46.389Z,36.12083
2023-01-11T19:33:49.262Z,35.94374
2023-01-11T19:38:52.554Z,36.31849
2023-01-11T19:43:55.351Z,36.6717
2023-01-11T19:48:58.441Z,36.97138
2023-01-11T19:54:01.296Z,36.41613
2023-01-11T19:59:03.921Z,36.15386
2023-01-11T20:04:05.832Z,36.75241
2023-01-11T20:09:07.418Z,37.19025
2023-01-11T20:14:11.391Z,37.8564
2023-01-11T20:19:14.322Z,37.27035
2023-01-11T20:24:16.192Z,37.53144
2023-01-11T20:29:18.099Z,37.02529
2023-01-11T20:34:19.896Z,37.6379
2023-01-11T20:39:21.463Z,37.9734
2023-01-11T20:44:23.281Z,38.5473
2023-01-11T20:49:25.017Z,37.76525
2023-01-11T20:54:26.589Z,37.92496
2023-01-11T20:59:28.127Z,38.21201
2023-01-11T21:04:29.617Z,37.78658
2023-01-11T21:09:31.162Z,38.40363
2023-01-11T21:14:32.754Z,38.3931
2023-01-11T21:19:35.310Z,39.29026
2023-01-11T21:24:36.844Z,39.86721
2023-01-11T21:29:38.491Z,39.98537
2023-01-11T21:34:40.280Z,40.13237
2023-01-11T21:39:42.037Z,40.95476
2023-01-11T21:44:43.814Z,41.90695
2023-01-11T21:49:45.878Z,42.58775
2023-01-11T21:54:47.621Z,41.65205
2023-01-11T21:59:50.447Z,43.20759
2023-01-11T22:04:52.348Z,42.75558
2023-01-11T22:10:04.466Z,42.21445
2023-01-11T22:15:06.280Z,42.09355
2023-01-11T22:20:08.043Z,41.90236
2023-01-11T22:25:09.857Z,42.71372
2023-01-11T22:30:11.421Z,44.02332
2023-01-11T22:35:12.967Z,44.66528
2023-01-11T22:40:14.735Z,43.95749
2023-01-11T22:45:16.222Z,44.89006
2023-01-11T22:50:18.282Z,43.95612
2023-01-11T22:55:20.067Z,44.32129
2023-01-11T23:00:21.676Z,43.29997
2023-01-11T23:05:23.408Z,44.00145
2023-01-11T23:10:25.175Z,43.30449
2023-01-11T23:15:27.024Z,43.74616
2023-01-11T23:20:28.990Z,45.28391
2023-01-11T23:25:30.736Z,45.87
2023-01-11T23:30:32.472Z,45.24038
2023-01-11T23:35:34.149Z,45.10724
2023-01-11T23:40:35.957Z,46.34934
2023-01-11T23:45:37.821Z,46.08387
2023-01-11T23:50:40.025Z,46.41501
2023-01-11T23:55:41.809Z,47.12733
